createdAt,value
2018-06-04T00:02:19.526Z,100777.50
2018-06-04T00:04:47.552Z,100787.20
2018-06-04T00:07:14.819Z,100775.87
2018-06-04T00:09:42.070Z,100780.56
2018-06-04T00:12:09.338Z,100778.70
2018-06-04T00:14:36.598Z,100776.05
2018-06-04T00:17:03.872Z,100775.44
2018-06-04T00:19:31.118Z,100763.81
2018-06-04T00:21:58.364Z,100767.02
2018-06-04T00:24:25.642Z,100766.41
2018-06-04T00:26:52.966Z,100770.91
2018-06-04T00:29:20.187Z,100770.27
2018-06-04T00:31:48.262Z,100775.89
2018-06-04T00:34:15.579Z,100769.02
2018-06-04T00:36:42.862Z,100761.78
2018-06-04T00:39:10.180Z,100762.31
2018-06-04T00:41:37.508Z,100766.77
2018-06-04T00:44:04.742Z,100765.75
2018-06-04T00:46:31.951Z,100769.11
2018-06-04T00:48:59.357Z,100761.55
2018-06-04T00:51:26.612Z,100757.64
2018-06-04T00:53:53.870Z,100761.30
2018-06-04T00:56:23.068Z,100751.34
2018-06-04T00:58:50.363Z,100749.53
2018-06-04T01:01:17.614Z,100740.74
2018-06-04T01:03:44.888Z,100741.38
2018-06-04T01:06:12.154Z,100730.84
2018-06-04T01:08:39.467Z,100734.09
2018-06-04T01:11:07.589Z,100735.29
2018-06-04T01:13:34.851Z,100739.72
2018-06-04T01:16:02.105Z,100736.06
2018-06-04T01:18:29.363Z,100731.08
2018-06-04T01:20:56.791Z,100734.01
2018-06-04T01:23:24.099Z,100737.05
2018-06-04T01:25:51.445Z,100738.61
2018-06-04T01:28:18.709Z,100733.38
2018-06-04T01:30:45.957Z,100735.20
2018-06-04T01:33:13.189Z,100734.88
2018-06-04T01:35:40.450Z,100730.67
2018-06-04T01:38:07.691Z,100738.61
2018-06-04T01:40:35.000Z,100737.50
2018-06-04T01:43:02.252Z,100732.76
2018-06-04T01:45:29.540Z,100736.87
2018-06-04T01:47:56.844Z,100733.59
2018-06-04T01:50:24.089Z,100729.44
2018-06-04T01:52:51.380Z,100736.69
2018-06-04T01:55:18.664Z,100735.67
2018-06-04T01:57:45.925Z,100734.20
2018-06-04T02:00:13.213Z,100727.73
2018-06-04T02:02:40.475Z,100727.34
2018-06-04T02:05:07.702Z,100732.49
2018-06-04T02:07:34.981Z,100728.91
2018-06-04T02:10:02.305Z,100728.52
2018-06-04T02:12:29.576Z,100725.17
2018-06-04T02:14:56.829Z,100726.18
2018-06-04T02:17:24.086Z,100735.83
2018-06-04T02:19:51.341Z,100734.25
2018-06-04T02:22:18.587Z,100738.47
2018-06-04T02:24:45.807Z,100738.27
2018-06-04T02:27:13.055Z,100735.11
2018-06-04T02:29:40.301Z,100732.89
2018-06-04T02:32:07.544Z,100732.58
2018-06-04T02:34:34.794Z,100725.89
2018-06-04T02:37:02.050Z,100718.96
2018-06-04T02:39:29.306Z,100717.77
2018-06-04T02:41:56.566Z,100716.16
2018-06-04T02:44:23.846Z,100717.28
2018-06-04T02:46:51.086Z,100717.53
2018-06-04T02:49:18.373Z,100710.22
2018-06-04T02:51:45.601Z,100713.80
2018-06-04T02:54:12.876Z,100708.52
2018-06-04T02:56:40.147Z,100711.16
2018-06-04T02:59:07.382Z,100712.72
2018-06-04T03:01:34.668Z,100711.57
2018-06-04T03:04:01.954Z,100716.34
2018-06-04T03:06:29.195Z,100719.06
2018-06-04T03:08:56.481Z,100710.94
2018-06-04T03:11:23.730Z,100717.55
2018-06-04T03:13:50.974Z,100711.08
2018-06-04T03:16:18.266Z,100711.63
2018-06-04T03:18:45.515Z,100712.02
2018-06-04T03:21:12.748Z,100703.58
2018-06-04T03:23:39.987Z,100706.86
2018-06-04T03:26:07.270Z,100705.22
2018-06-04T03:28:34.540Z,100704.52
2018-06-04T03:31:01.801Z,100706.53
2018-06-04T03:33:29.040Z,100708.79
2018-06-04T03:35:56.300Z,100706.03
2018-06-04T03:38:23.552Z,100703.88
2018-06-04T03:40:51.662Z,100711.70
2018-06-04T03:43:18.886Z,100706.63
2018-06-04T03:45:46.116Z,100706.18
2018-06-04T03:48:13.355Z,100697.33
2018-06-04T03:50:40.588Z,100703.00
2018-06-04T03:53:07.850Z,100699.41
2018-06-04T03:55:35.100Z,100701.85
2018-06-04T03:58:02.374Z,100697.98
2018-06-04T04:00:29.653Z,100704.34
2018-06-04T04:02:56.961Z,100701.87
2018-06-04T04:05:24.196Z,100700.12
2018-06-04T04:07:51.511Z,100704.83
2018-06-04T04:10:18.788Z,100716.52
2018-06-04T04:12:46.068Z,100705.13
2018-06-04T04:15:13.314Z,100705.36
2018-06-04T04:17:40.573Z,100705.59
2018-06-04T04:20:07.838Z,100705.75
2018-06-04T04:22:35.116Z,100703.11
2018-06-04T04:25:02.389Z,100708.85
2018-06-04T04:27:29.673Z,100702.62
2018-06-04T04:29:56.927Z,100703.09
2018-06-04T04:32:24.179Z,100703.12
2018-06-04T04:34:51.446Z,100706.75
2018-06-04T04:37:18.733Z,100704.97
2018-06-04T04:39:46.009Z,100700.54
2018-06-04T04:42:13.284Z,100698.52
2018-06-04T04:44:40.545Z,100695.30
2018-06-04T04:47:07.803Z,100702.47
2018-06-04T04:49:35.048Z,100700.05
2018-06-04T04:52:02.368Z,100702.65
2018-06-04T04:54:29.631Z,100695.30
2018-06-04T04:56:56.908Z,100698.97
2018-06-04T04:59:24.201Z,100692.66
2018-06-04T05:01:51.448Z,100694.22
2018-06-04T05:04:18.690Z,100696.01
2018-06-04T05:06:45.995Z,100693.59
2018-06-04T05:09:13.244Z,100696.30
2018-06-04T05:11:40.508Z,100689.52
2018-06-04T05:14:08.608Z,100686.39
2018-06-04T05:16:35.892Z,100688.73
2018-06-04T05:19:03.132Z,100691.08
2018-06-04T05:21:30.357Z,100687.33
2018-06-04T05:23:57.641Z,100692.38
2018-06-04T05:26:24.937Z,100690.03
2018-06-04T05:28:52.227Z,100679.19
2018-06-04T05:31:19.470Z,100687.45
2018-06-04T05:33:46.750Z,100683.47
2018-06-04T05:36:14.033Z,100677.25
2018-06-04T05:38:41.351Z,100673.50
2018-06-04T05:41:08.601Z,100673.56
2018-06-04T05:43:35.877Z,100678.06
2018-06-04T05:46:03.143Z,100672.41
2018-06-04T05:48:30.452Z,100680.13
2018-06-04T05:50:57.683Z,100677.06
2018-06-04T05:53:24.984Z,100681.34
2018-06-04T05:55:52.264Z,100678.83
2018-06-04T05:58:19.519Z,100673.89
2018-06-04T06:00:46.749Z,100669.59
2018-06-04T06:03:13.996Z,100665.47
2018-06-04T06:05:41.250Z,100667.69
2018-06-04T06:08:08.488Z,100667.69
2018-06-04T06:10:37.361Z,100664.45
2018-06-04T06:13:04.638Z,100663.42
2018-06-04T06:15:31.974Z,100667.53
2018-06-04T06:17:59.208Z,100666.99
2018-06-04T06:20:26.466Z,100667.30
2018-06-04T06:22:53.754Z,100658.12
2018-06-04T06:25:21.011Z,100662.31
2018-06-04T06:27:48.240Z,100663.09
2018-06-04T06:30:15.506Z,100659.30
2018-06-04T06:32:42.756Z,100656.65
2018-06-04T06:35:10.001Z,100653.53
2018-06-04T06:37:37.324Z,100658.84
2018-06-04T06:40:04.580Z,100646.13
2018-06-04T06:42:31.832Z,100651.44
2018-06-04T06:44:59.108Z,100642.42
2018-06-04T06:47:26.452Z,100648.32
2018-06-04T06:49:53.687Z,100646.81
2018-06-04T06:52:20.997Z,100645.10
2018-06-04T06:54:48.285Z,100643.81
2018-06-04T06:57:15.546Z,100634.99
2018-06-04T06:59:42.792Z,100645.23
2018-06-04T07:02:10.044Z,100642.09
2018-06-04T07:04:37.319Z,100639.81
2018-06-04T07:07:04.564Z,100643.41
2018-06-04T07:09:31.810Z,100644.17
2018-06-04T07:11:59.102Z,100645.51
2018-06-04T07:14:26.361Z,100643.41
2018-06-04T07:16:53.705Z,100646.63
2018-06-04T07:19:20.965Z,100648.61
2018-06-04T07:21:48.209Z,100644.34
2018-06-04T07:24:15.459Z,100649.07
2018-06-04T07:26:42.810Z,100646.59
2018-06-04T07:29:10.035Z,100645.06
2018-06-04T07:31:37.283Z,100647.13
2018-06-04T07:34:04.865Z,100642.36
2018-06-04T07:36:32.153Z,100647.13
2018-06-04T07:38:59.425Z,100639.09
2018-06-04T07:41:26.713Z,100645.37
2018-06-04T07:43:54.026Z,100640.19
2018-06-04T07:46:21.260Z,100642.73
2018-06-04T07:48:48.543Z,100642.78
2018-06-04T07:51:15.788Z,100643.19
2018-06-04T07:53:43.059Z,100635.36
2018-06-04T07:56:10.332Z,100636.89
2018-06-04T07:58:37.601Z,100630.03
2018-06-04T08:01:04.883Z,100627.58
2018-06-04T08:03:32.164Z,100626.43
2018-06-04T08:05:59.416Z,100622.44
2018-06-04T08:08:26.674Z,100616.80
2018-06-04T08:10:53.984Z,100610.74
2018-06-04T08:13:21.232Z,100610.86
2018-06-04T08:15:48.488Z,100608.47
2018-06-04T08:18:15.772Z,100606.43
2018-06-04T08:20:43.008Z,100602.98
2018-06-04T08:23:11.112Z,100608.73
2018-06-04T08:25:38.357Z,100606.92
2018-06-04T08:28:05.620Z,100602.27
2018-06-04T08:30:32.892Z,100594.66
2018-06-04T08:33:00.141Z,100592.81
2018-06-04T08:35:27.414Z,100596.52
2018-06-04T08:37:54.678Z,100594.60
2018-06-04T08:40:21.953Z,100597.48
2018-06-04T08:42:49.243Z,100597.64
2018-06-04T08:45:16.489Z,100596.45
2018-06-04T08:47:43.780Z,100593.69
2018-06-04T08:50:11.007Z,100591.96
2018-06-04T08:52:38.322Z,100591.96
2018-06-04T08:55:05.579Z,100590.84
2018-06-04T08:57:35.200Z,100585.25
2018-06-04T09:00:02.480Z,100582.83
2018-06-04T09:02:29.763Z,100580.27
2018-06-04T09:04:57.019Z,100585.45
2018-06-04T09:07:24.301Z,100584.64
2018-06-04T09:09:51.569Z,100589.09
2018-06-04T09:12:18.843Z,100585.52
2018-06-04T09:14:46.069Z,100581.42
2018-06-04T09:17:13.315Z,100582.27
2018-06-04T09:19:40.605Z,100583.61
2018-06-04T09:22:07.942Z,100579.48
2018-06-04T09:24:35.185Z,100579.02
2018-06-04T09:27:02.428Z,100581.08
2018-06-04T09:29:29.733Z,100582.24
2018-06-04T09:31:57.016Z,100578.20
2018-06-04T09:34:24.300Z,100578.05
2018-06-04T09:36:51.568Z,100582.76
2018-06-04T09:39:20.495Z,100579.34
2018-06-04T09:41:47.764Z,100584.21
2018-06-04T09:44:16.674Z,100573.19
2018-06-04T09:46:43.906Z,100572.02
2018-06-04T09:49:11.174Z,100571.41
2018-06-04T09:51:38.426Z,100582.19
2018-06-04T09:54:05.713Z,100573.94
2018-06-04T09:56:32.950Z,100570.64
2018-06-04T09:59:00.227Z,100562.73
2018-06-04T10:01:27.478Z,100554.37
2018-06-04T10:03:54.750Z,100552.89
2018-06-04T10:06:22.050Z,100554.55
2018-06-04T10:08:49.344Z,100550.52
2018-06-04T10:11:16.740Z,100554.18
2018-06-04T10:13:43.999Z,100554.63
2018-06-04T10:16:11.275Z,100551.73
2018-06-04T10:18:38.526Z,100544.70
2018-06-04T10:21:05.775Z,100552.06
2018-06-04T10:23:33.061Z,100548.16
2018-06-04T10:26:00.306Z,100545.02
2018-06-04T10:28:27.535Z,100540.73
2018-06-04T10:30:54.855Z,100546.91
2018-06-04T10:33:22.125Z,100539.02
2018-06-04T10:35:49.405Z,100539.25
2018-06-04T10:38:16.647Z,100543.05
2018-06-04T10:40:44.709Z,100544.07
2018-06-04T10:43:11.996Z,100540.88
2018-06-04T10:45:39.261Z,100546.66
2018-06-04T10:48:07.268Z,100533.73
2018-06-04T10:50:34.572Z,100544.48
2018-06-04T10:53:01.874Z,100543.48
2018-06-04T10:55:29.130Z,100525.67
2018-06-04T10:57:56.446Z,100530.11
2018-06-04T11:00:23.782Z,100537.87
2018-06-04T11:02:51.039Z,100528.81
2018-06-04T11:05:19.172Z,100525.60
2018-06-04T11:07:46.437Z,100520.47
2018-06-04T11:10:13.724Z,100515.34
2018-06-04T11:12:40.995Z,100520.94
2018-06-04T11:15:08.245Z,100510.48
2018-06-04T11:17:35.492Z,100513.36
2018-06-04T11:20:02.778Z,100501.84
2018-06-04T11:22:30.012Z,100511.61
2018-06-04T11:24:57.263Z,100507.86
2018-06-04T11:27:24.502Z,100507.38
2018-06-04T11:29:51.776Z,100519.10
2018-06-04T11:32:19.041Z,100519.77
2018-06-04T11:34:46.324Z,100519.07
2018-06-04T11:37:13.618Z,100513.70
2018-06-04T11:39:40.900Z,100515.70
2018-06-04T11:42:08.921Z,100512.27
2018-06-04T11:44:36.183Z,100518.72
2018-06-04T11:47:03.519Z,100513.95
2018-06-04T11:49:30.791Z,100507.91
2018-06-04T11:51:58.029Z,100502.88
2018-06-04T11:54:25.285Z,100494.87
2018-06-04T11:56:52.583Z,100492.05
2018-06-04T11:59:19.851Z,100493.65
2018-06-04T12:01:47.111Z,100486.75
2018-06-04T12:04:14.347Z,100485.86
2018-06-04T12:06:41.641Z,100489.56
2018-06-04T12:09:08.867Z,100490.28
2018-06-04T12:11:36.237Z,100481.81
2018-06-04T12:14:03.517Z,100478.89
2018-06-04T12:16:30.838Z,100474.70
2018-06-04T12:18:58.091Z,100475.39
2018-06-04T12:21:25.377Z,100476.53
2018-06-04T12:23:52.638Z,100473.12
2018-06-04T12:26:19.970Z,100470.73
2018-06-04T12:28:47.225Z,100469.20
2018-06-04T12:31:14.451Z,100465.28
2018-06-04T12:33:41.723Z,100472.67
2018-06-04T12:36:09.028Z,100470.38
2018-06-04T12:38:36.326Z,100466.14
2018-06-04T12:41:03.565Z,100467.59
2018-06-04T12:43:30.849Z,100463.91
2018-06-04T12:45:58.122Z,100463.20
2018-06-04T12:48:25.387Z,100458.14
2018-06-04T12:50:52.635Z,100454.59
2018-06-04T12:53:19.917Z,100456.22
2018-06-04T12:55:47.213Z,100462.33
2018-06-04T12:58:14.490Z,100455.00
2018-06-04T13:00:41.736Z,100446.39
2018-06-04T13:03:08.994Z,100457.92
2018-06-04T13:05:36.248Z,100447.98
2018-06-04T13:08:03.521Z,100449.70
2018-06-04T13:10:30.740Z,100441.77
2018-06-04T13:12:58.812Z,100444.43
2018-06-04T13:15:26.139Z,100448.45
2018-06-04T13:17:53.440Z,100441.98
2018-06-04T13:20:20.701Z,100444.91
2018-06-04T13:22:47.994Z,100440.11
2018-06-04T13:25:15.232Z,100433.87
2018-06-04T13:27:42.488Z,100432.70
2018-06-04T13:30:09.797Z,100432.68
2018-06-04T13:32:37.051Z,100432.25
2018-06-04T13:35:04.303Z,100430.34
2018-06-04T13:37:32.469Z,100423.58
2018-06-04T13:39:59.687Z,100427.11
2018-06-04T13:42:27.005Z,100416.10
2018-06-04T13:44:54.319Z,100417.64
2018-06-04T13:47:21.601Z,100417.63
2018-06-04T13:49:48.937Z,100413.25
2018-06-04T13:52:16.165Z,100409.02
2018-06-04T13:54:43.454Z,100409.77
2018-06-04T13:57:10.712Z,100399.62
2018-06-04T13:59:38.020Z,100407.79
2018-06-04T14:02:05.404Z,100399.91
2018-06-04T14:04:32.649Z,100402.19
2018-06-04T14:06:59.895Z,100397.50
2018-06-04T14:09:27.165Z,100396.33
2018-06-04T14:11:54.568Z,100396.50
2018-06-04T14:14:21.788Z,100394.84
2018-06-04T14:16:49.053Z,100394.73
2018-06-04T14:19:16.281Z,100390.97
2018-06-04T14:21:43.536Z,100392.67
2018-06-04T14:24:10.792Z,100389.36
2018-06-04T14:26:38.024Z,100385.64
2018-06-04T14:29:05.308Z,100394.70
2018-06-04T14:31:32.570Z,100390.64
2018-06-04T14:33:59.816Z,100389.84
2018-06-04T14:36:27.096Z,100387.60
2018-06-04T14:38:54.362Z,100386.59
2018-06-04T14:41:21.651Z,100386.20
2018-06-04T14:43:48.896Z,100387.76
2018-06-04T14:46:16.193Z,100385.97
2018-06-04T14:48:43.452Z,100385.59
2018-06-04T14:51:10.706Z,100387.25
2018-06-04T14:53:37.998Z,100373.88
2018-06-04T14:56:05.226Z,100385.52
2018-06-04T14:58:32.469Z,100390.28
2018-06-04T15:00:59.715Z,100386.27
2018-06-04T15:03:26.942Z,100374.97
2018-06-04T15:05:54.238Z,100376.47
2018-06-04T15:08:21.481Z,100375.22
2018-06-04T15:10:48.729Z,100375.97
2018-06-04T15:13:15.985Z,100376.89
2018-06-04T15:15:43.229Z,100382.25
2018-06-04T15:18:10.499Z,100383.86
2018-06-04T15:20:37.816Z,100369.88
2018-06-04T15:23:05.075Z,100362.13
2018-06-04T15:25:32.353Z,100370.37
2018-06-04T15:27:59.713Z,100360.48
2018-06-04T15:30:27.035Z,100363.59
2018-06-04T15:32:54.354Z,100358.77
2018-06-04T15:35:21.672Z,100350.18
2018-06-04T15:37:48.990Z,100354.63
2018-06-04T15:40:16.197Z,100356.29
2018-06-04T15:42:43.566Z,100354.53
2018-06-04T15:45:10.823Z,100355.06
2018-06-04T15:47:38.112Z,100349.98
2018-06-04T15:50:05.381Z,100350.18
2018-06-04T15:52:32.650Z,100357.30
2018-06-04T15:54:59.922Z,100354.38
2018-06-04T15:57:27.193Z,100352.66
2018-06-04T15:59:54.471Z,100353.44
2018-06-04T16:02:21.739Z,100348.91
2018-06-04T16:04:48.996Z,100344.20
2018-06-04T16:07:16.223Z,100355.37
2018-06-04T16:09:43.486Z,100343.65
2018-06-04T16:12:10.764Z,100345.14
2018-06-04T16:14:38.054Z,100344.55
2018-06-04T16:17:05.314Z,100340.17
2018-06-04T16:19:32.584Z,100337.22
2018-06-04T16:21:59.955Z,100340.88
2018-06-04T16:24:27.206Z,100335.63
2018-06-04T16:26:54.450Z,100339.69
2018-06-04T16:29:21.760Z,100341.71
2018-06-04T16:31:49.845Z,100334.20
2018-06-04T16:34:17.108Z,100332.97
2018-06-04T16:36:44.544Z,100331.07
2018-06-04T16:39:11.801Z,100332.92
2018-06-04T16:41:39.101Z,100321.05
2018-06-04T16:44:06.346Z,100321.09
2018-06-04T16:46:33.641Z,100321.62
2018-06-04T16:49:00.895Z,100316.33
2018-06-04T16:51:28.173Z,100322.13
2018-06-04T16:53:55.436Z,100325.01
2018-06-04T16:56:22.730Z,100323.53
2018-06-04T16:58:50.003Z,100312.22
2018-06-04T17:01:17.298Z,100317.61
2018-06-04T17:03:44.591Z,100311.16
2018-06-04T17:06:11.871Z,100316.86
2018-06-04T17:08:39.152Z,100316.58
2018-06-04T17:11:06.614Z,100309.34
2018-06-04T17:13:33.926Z,100314.16
2018-06-04T17:16:01.226Z,100310.98
2018-06-04T17:18:28.596Z,100308.59
2018-06-04T17:20:55.877Z,100306.53
2018-06-04T17:23:23.152Z,100301.34
2018-06-04T17:25:50.448Z,100304.48
2018-06-04T17:28:17.807Z,100308.14
2018-06-04T17:30:45.295Z,100305.50
2018-06-04T17:33:12.612Z,100308.41
2018-06-04T17:35:39.951Z,100308.08
2018-06-04T17:38:07.286Z,100316.59
2018-06-04T17:40:34.574Z,100307.20
2018-06-04T17:43:01.864Z,100302.57
2018-06-04T17:45:29.193Z,100307.52
2018-06-04T17:47:56.548Z,100306.39
2018-06-04T17:50:23.906Z,100309.38
2018-06-04T17:52:54.833Z,100318.37
2018-06-04T17:55:22.138Z,100321.41
2018-06-04T17:57:49.536Z,100318.11
2018-06-04T18:00:16.922Z,100313.66
2018-06-04T18:02:44.255Z,100316.97
2018-06-04T18:05:11.563Z,100313.70
2018-06-04T18:07:38.862Z,100313.18
2018-06-04T18:10:06.220Z,100321.23
2018-06-04T18:12:33.809Z,100311.94
2018-06-04T18:15:01.185Z,100310.98
2018-06-04T18:17:28.499Z,100323.95
2018-06-04T18:19:55.809Z,100314.63
2018-06-04T18:22:23.167Z,100315.34
2018-06-04T18:24:50.985Z,100318.00
2018-06-04T18:27:18.340Z,100321.48
2018-06-04T18:29:45.957Z,100319.34
2018-06-04T18:32:13.311Z,100324.38
2018-06-04T18:34:40.960Z,100320.94
2018-06-04T18:37:08.268Z,100322.15
2018-06-04T18:39:35.585Z,100319.75
2018-06-04T18:42:02.949Z,100311.77
2018-06-04T18:44:30.525Z,100326.59
2018-06-04T18:46:57.856Z,100330.27
2018-06-04T18:49:25.161Z,100335.53
2018-06-04T18:51:53.654Z,100332.11
2018-06-04T18:54:21.063Z,100343.16
2018-06-04T18:56:48.401Z,100344.53
2018-06-04T18:59:16.881Z,100335.78
2018-06-04T19:01:44.226Z,100338.91
2018-06-04T19:04:11.677Z,100343.66
2018-06-04T19:06:39.990Z,100341.97
2018-06-04T19:09:08.618Z,100344.77
2018-06-04T19:11:36.117Z,100349.00
2018-06-04T19:14:05.702Z,100350.44
2018-06-04T19:16:33.194Z,100352.73
2018-06-04T19:19:00.880Z,100352.96
2018-06-04T19:21:28.273Z,100363.15
2018-06-04T19:23:55.660Z,100361.34
2018-06-04T19:26:23.666Z,100370.80
2018-06-04T19:28:51.845Z,100373.91
2018-06-04T19:31:19.628Z,100374.59
2018-06-04T19:33:47.013Z,100376.31
2018-06-04T19:36:14.357Z,100390.11
2018-06-04T19:38:41.813Z,100390.84
2018-06-04T19:41:09.146Z,100391.35
2018-06-04T19:43:36.847Z,100392.28
2018-06-04T19:46:05.115Z,100390.93
2018-06-04T19:48:32.453Z,100396.73
2018-06-04T19:51:00.871Z,100399.57
2018-06-04T19:53:28.148Z,100394.88
2018-06-04T19:55:55.819Z,100404.33
2018-06-04T19:58:24.208Z,100409.13
2018-06-04T20:00:51.536Z,100409.43
2018-06-04T20:03:19.001Z,100413.11
2018-06-04T20:05:46.320Z,100416.02
2018-06-04T20:08:13.817Z,100418.61
2018-06-04T20:10:41.340Z,100412.53
2018-06-04T20:13:09.722Z,100418.09
2018-06-04T20:15:37.461Z,100421.75
2018-06-04T20:18:04.840Z,100425.58
2018-06-04T20:20:33.321Z,100423.15
2018-06-04T20:23:00.736Z,100426.38
2018-06-04T20:25:28.576Z,100430.06
2018-06-04T20:27:55.951Z,100427.50
2018-06-04T20:30:23.255Z,100430.68
2018-06-04T20:35:31.024Z,100430.43
2018-06-04T20:37:58.360Z,100431.49
2018-06-04T20:40:25.678Z,100429.02
2018-06-04T20:42:53.031Z,100433.53
2018-06-04T20:45:20.366Z,100441.23
2018-06-04T20:47:48.041Z,100436.33
2018-06-04T20:50:15.901Z,100439.59
2018-06-04T20:52:43.193Z,100441.94
2018-06-04T20:55:10.515Z,100443.36
2018-06-04T20:57:37.882Z,100437.30
2018-06-04T21:00:05.247Z,100445.70
2018-06-04T21:02:32.591Z,100445.70
2018-06-04T21:04:59.937Z,100449.47
2018-06-04T21:07:27.283Z,100447.77
2018-06-04T21:09:54.560Z,100443.13
2018-06-04T21:12:21.816Z,100446.66
2018-06-04T21:14:49.098Z,100450.42
2018-06-04T21:17:16.375Z,100445.30
2018-06-04T21:19:43.665Z,100449.87
2018-06-04T21:22:10.994Z,100447.39
2018-06-04T21:24:38.278Z,100444.92
2018-06-04T21:27:05.609Z,100449.28
2018-06-04T21:29:32.922Z,100443.83
2018-06-04T21:32:00.187Z,100445.52
2018-06-04T21:34:27.491Z,100443.13
2018-06-04T21:36:54.821Z,100441.66
2018-06-04T21:39:22.096Z,100439.52
2018-06-04T21:41:49.378Z,100444.97
2018-06-04T21:44:16.654Z,100443.41
2018-06-04T21:46:43.936Z,100442.63
2018-06-04T21:49:15.774Z,100451.62
2018-06-04T21:51:43.064Z,100456.38
2018-06-04T21:54:10.314Z,100451.77
2018-06-04T21:56:37.675Z,100459.59
2018-06-04T21:59:05.228Z,100455.20
2018-06-04T22:01:32.493Z,100455.98
2018-06-04T22:03:59.762Z,100467.34
2018-06-04T22:06:27.175Z,100468.71
2018-06-04T22:08:54.576Z,100464.91
2018-06-04T22:11:21.844Z,100464.14
2018-06-04T22:13:49.076Z,100467.56
2018-06-04T22:16:16.351Z,100468.89
2018-06-04T22:18:44.238Z,100472.20
2018-06-04T22:21:11.512Z,100467.20
2018-06-04T22:23:38.895Z,100475.17
2018-06-04T22:26:06.206Z,100474.80
2018-06-04T22:28:33.449Z,100473.66
2018-06-04T22:31:00.723Z,100474.49
2018-06-04T22:33:28.106Z,100476.88
2018-06-04T22:35:55.385Z,100483.15
2018-06-04T22:38:22.638Z,100484.35
2018-06-04T22:40:49.915Z,100488.65
2018-06-04T22:43:17.187Z,100485.80
2018-06-04T22:45:44.435Z,100485.43
2018-06-04T22:48:11.725Z,100477.27
2018-06-04T22:50:38.998Z,100479.70
2018-06-04T22:53:06.258Z,100486.77
2018-06-04T22:55:33.519Z,100492.91
2018-06-04T22:58:00.744Z,100489.51
2018-06-04T23:00:32.110Z,100488.45
2018-06-04T23:02:59.344Z,100488.64
2018-06-04T23:05:26.624Z,100492.81
2018-06-04T23:07:53.886Z,100495.09
2018-06-04T23:10:21.141Z,100496.80
2018-06-04T23:12:48.414Z,100501.55
2018-06-04T23:15:15.680Z,100500.64
2018-06-04T23:17:42.949Z,100501.19
2018-06-04T23:20:10.252Z,100505.47
2018-06-04T23:22:37.495Z,100492.26
2018-06-04T23:25:04.773Z,100491.90
2018-06-04T23:27:31.992Z,100494.91
2018-06-04T23:29:59.267Z,100499.28
2018-06-04T23:32:26.619Z,100492.06
2018-06-04T23:34:53.855Z,100497.59
2018-06-04T23:37:21.103Z,100494.37
2018-06-04T23:39:48.385Z,100490.75
2018-06-04T23:42:15.670Z,100494.37
2018-06-04T23:44:42.912Z,100497.39
2018-06-04T23:47:10.185Z,100499.77
2018-06-04T23:49:37.426Z,100501.16
2018-06-04T23:52:04.679Z,100511.05
2018-06-04T23:54:31.959Z,100503.63
2018-06-04T23:56:59.229Z,100502.39
2018-06-04T23:59:26.492Z,100508.27
